createdAt,value
2019-03-01T00:01:50.538Z,81.57
2019-03-01T00:05:08.368Z,92.13
2019-03-01T00:08:08.057Z,87.63
2019-03-01T00:11:18.566Z,83.03
2019-03-01T00:14:24.561Z,89.23
2019-03-01T00:17:15.039Z,97.27
2019-03-01T00:20:18.319Z,92.93
2019-03-01T00:23:26.432Z,92.07
2019-03-01T00:26:29.285Z,100.43
2019-03-01T00:29:30.636Z,92.13
2019-03-01T00:32:43.276Z,86.13
2019-03-01T00:35:42.735Z,92.37
2019-03-01T00:38:33.967Z,92.87
2019-03-01T00:41:41.230Z,89.87
2019-03-01T00:44:38.761Z,93.27
2019-03-01T00:47:08.963Z,103.33
2019-03-01T00:49:39.245Z,99.90
2019-03-01T00:52:10.364Z,109.67
2019-03-01T00:54:41.706Z,110.90
2019-03-01T00:57:13.284Z,109.10
2019-03-01T00:59:43.578Z,106.63
2019-03-01T01:02:13.903Z,109.97
2019-03-01T01:04:44.537Z,119.57
2019-03-01T01:07:14.792Z,120.03
2019-03-01T01:09:45.320Z,113.37
2019-03-01T01:12:15.714Z,129.93
2019-03-01T01:14:45.995Z,137.27
2019-03-01T01:17:16.254Z,130.40
2019-03-01T01:19:46.622Z,128.60
2019-03-01T01:22:16.934Z,134.90
2019-03-01T01:24:47.213Z,124.30
2019-03-01T01:27:19.397Z,141.90
2019-03-01T01:29:49.722Z,134.10
2019-03-01T01:32:20.028Z,142.53
2019-03-01T01:34:50.985Z,144.03
2019-03-01T01:37:21.305Z,141.40
2019-03-01T01:39:51.658Z,149.17
2019-03-01T01:42:22.066Z,146.67
2019-03-01T01:44:52.306Z,150.97
2019-03-01T01:47:22.630Z,144.93
2019-03-01T01:49:52.913Z,150.10
2019-03-01T01:52:23.250Z,156.23
2019-03-01T01:54:53.485Z,167.07
2019-03-01T01:57:23.735Z,164.03
2019-03-01T01:59:54.082Z,155.93
2019-03-01T02:02:24.332Z,155.53
2019-03-01T02:04:54.949Z,152.00
2019-03-01T02:07:25.269Z,157.40
2019-03-01T02:09:55.509Z,156.13
2019-03-01T02:12:26.000Z,162.30
2019-03-01T02:14:56.270Z,161.30
2019-03-01T02:17:26.588Z,172.10
2019-03-01T02:19:56.888Z,166.37
2019-03-01T02:22:27.156Z,160.60
2019-03-01T02:24:57.363Z,162.10
2019-03-01T02:27:29.699Z,169.57
2019-03-01T02:30:01.136Z,174.67
2019-03-01T02:32:35.600Z,165.50
2019-03-01T02:35:06.859Z,169.27
2019-03-01T02:37:37.122Z,161.67
2019-03-01T02:40:08.898Z,158.20
2019-03-01T02:42:39.190Z,151.47
2019-03-01T02:45:12.875Z,161.27
2019-03-01T02:47:43.442Z,158.93
2019-03-01T02:50:14.936Z,155.90
2019-03-01T02:52:45.220Z,148.27
2019-03-01T02:55:17.439Z,162.37
2019-03-01T02:57:47.854Z,152.70
2019-03-01T03:00:20.404Z,159.63
2019-03-01T03:02:50.803Z,152.47
2019-03-01T03:05:21.430Z,149.90
2019-03-01T03:07:59.820Z,158.53
2019-03-01T03:10:30.193Z,150.30
2019-03-01T03:13:02.716Z,150.57
2019-03-01T03:15:39.367Z,153.30
2019-03-01T03:18:09.817Z,162.73
2019-03-01T03:20:40.205Z,160.10
2019-03-01T03:23:10.567Z,158.50
2019-03-01T03:25:40.853Z,161.67
2019-03-01T03:28:11.055Z,143.40
2019-03-01T03:30:41.421Z,161.40
2019-03-01T03:33:11.836Z,159.67
2019-03-01T03:35:43.761Z,162.63
2019-03-01T03:38:14.094Z,158.67
2019-03-01T03:40:44.439Z,159.63
2019-03-01T03:43:15.156Z,145.57
2019-03-01T03:45:45.425Z,155.57
2019-03-01T03:48:15.680Z,150.33
2019-03-01T03:50:46.029Z,152.97
2019-03-01T03:53:16.716Z,151.53
2019-03-01T03:55:47.013Z,159.03
2019-03-01T03:58:17.224Z,145.70
2019-03-01T04:00:47.497Z,151.03
2019-03-01T04:03:17.769Z,155.67
2019-03-01T04:05:48.267Z,146.70
2019-03-01T04:08:18.798Z,144.43
2019-03-01T04:10:49.050Z,155.93
2019-03-01T04:13:19.316Z,146.60
2019-03-01T04:15:50.258Z,146.63
2019-03-01T04:18:20.520Z,149.60
2019-03-01T04:20:50.762Z,159.70
2019-03-01T04:23:21.104Z,140.60
2019-03-01T04:25:51.423Z,129.60
2019-03-01T04:28:21.672Z,131.23
2019-03-01T04:30:51.925Z,133.13
2019-03-01T04:33:22.184Z,124.07
2019-03-01T04:35:52.505Z,136.70
2019-03-01T04:38:22.958Z,122.93
2019-03-01T04:40:53.209Z,121.87
2019-03-01T04:43:23.597Z,119.20
2019-03-01T04:45:55.581Z,121.47
2019-03-01T04:48:25.933Z,119.73
2019-03-01T04:50:56.306Z,119.10
2019-03-01T04:53:26.540Z,112.90
2019-03-01T04:55:56.784Z,121.33
2019-03-01T04:58:27.078Z,112.03
2019-03-01T05:00:57.775Z,113.73
2019-03-01T05:03:28.047Z,122.13
2019-03-01T05:05:58.595Z,113.73
2019-03-01T05:08:28.857Z,119.90
2019-03-01T05:10:59.230Z,122.23
2019-03-01T05:13:29.478Z,114.70
2019-03-01T05:16:01.349Z,110.50
2019-03-01T05:18:31.590Z,112.20
2019-03-01T05:21:02.966Z,109.27
2019-03-01T05:23:33.293Z,104.57
2019-03-01T05:26:03.583Z,103.10
2019-03-01T05:28:33.845Z,101.87
2019-03-01T05:31:04.092Z,106.30
2019-03-01T05:33:34.417Z,102.80
2019-03-01T05:36:04.686Z,95.63
2019-03-01T05:38:34.975Z,91.13
2019-03-01T05:41:05.230Z,92.30
2019-03-01T05:43:35.549Z,91.70
2019-03-01T05:46:05.747Z,90.27
2019-03-01T05:48:36.145Z,82.70
2019-03-01T05:51:08.164Z,83.63
2019-03-01T05:53:38.485Z,77.50
2019-03-01T05:56:10.850Z,70.80
2019-03-01T05:58:47.289Z,72.43
2019-03-01T06:01:33.272Z,71.77
2019-03-01T06:04:16.702Z,66.37
2019-03-01T06:07:22.934Z,60.47
2019-03-01T06:09:58.827Z,63.70
2019-03-01T06:13:09.147Z,59.67
2019-03-01T06:15:56.728Z,57.73
2019-03-01T06:19:02.978Z,57.50
2019-03-01T06:22:08.576Z,58.70
2019-03-01T06:24:51.816Z,52.27
2019-03-01T06:27:45.974Z,56.13
2019-03-01T06:31:02.821Z,58.90
2019-03-01T06:34:32.091Z,52.10
2019-03-01T06:37:20.321Z,49.03
2019-03-01T06:40:40.543Z,45.23
2019-03-01T06:43:52.200Z,47.07
2019-03-01T06:46:40.594Z,52.33
2019-03-01T06:49:25.768Z,47.33
2019-03-01T06:51:56.111Z,47.37
2019-03-01T06:54:26.382Z,43.47
2019-03-01T06:56:56.737Z,44.00
2019-03-01T06:59:29.406Z,39.63
2019-03-01T07:02:06.434Z,41.67
2019-03-01T07:04:38.950Z,41.83
2019-03-01T07:07:11.456Z,39.87
2019-03-01T07:09:44.109Z,41.33
2019-03-01T07:12:17.135Z,47.47
2019-03-01T07:14:48.692Z,40.50
2019-03-01T07:17:19.592Z,35.13
2019-03-01T07:19:55.667Z,41.93
2019-03-01T07:22:28.511Z,45.43
2019-03-01T07:24:59.536Z,48.57
2019-03-01T07:27:30.801Z,39.23
2019-03-01T07:30:02.469Z,41.07
2019-03-01T07:32:34.132Z,43.93
2019-03-01T07:35:05.865Z,39.17
2019-03-01T07:37:37.330Z,33.17
2019-03-01T07:40:08.569Z,36.50
2019-03-01T07:42:38.789Z,31.03
2019-03-01T07:45:10.763Z,30.63
2019-03-01T07:47:43.661Z,30.13
2019-03-01T07:50:14.351Z,27.97
2019-03-01T07:52:46.955Z,29.13
2019-03-01T07:55:19.572Z,30.93
2019-03-01T07:57:50.661Z,29.27
2019-03-01T08:00:21.189Z,26.27
2019-03-01T08:02:51.463Z,24.50
2019-03-01T08:05:22.300Z,29.30
2019-03-01T08:07:56.019Z,25.67
2019-03-01T08:10:25.456Z,24.20
2019-03-01T08:12:55.728Z,21.80
2019-03-01T08:15:49.067Z,21.90
2019-03-01T08:18:23.028Z,25.10
2019-03-01T08:20:53.427Z,26.17
2019-03-01T08:23:31.749Z,21.83
2019-03-01T08:26:06.542Z,23.13
2019-03-01T08:28:37.030Z,20.27
2019-03-01T08:31:17.414Z,21.20
2019-03-01T08:33:57.520Z,20.50
2019-03-01T08:36:38.610Z,24.37
2019-03-01T08:39:11.496Z,19.27
2019-03-01T08:41:41.882Z,19.80
2019-03-01T08:44:12.274Z,18.50
2019-03-01T08:46:45.584Z,23.13
2019-03-01T08:49:14.548Z,19.10
2019-03-01T08:51:44.822Z,22.90
2019-03-01T08:54:16.343Z,23.47
2019-03-01T08:56:50.269Z,19.93
2019-03-01T08:59:19.770Z,22.43
2019-03-01T09:01:50.199Z,20.77
2019-03-01T09:04:21.745Z,21.87
2019-03-01T09:06:53.145Z,23.47
2019-03-01T09:09:23.731Z,23.50
2019-03-01T09:11:54.066Z,25.60
2019-03-01T09:14:26.206Z,26.77
2019-03-01T09:16:56.367Z,25.63
2019-03-01T09:19:26.769Z,24.70
2019-03-01T09:21:59.871Z,26.87
2019-03-01T09:24:30.100Z,26.70
2019-03-01T09:27:00.369Z,27.70
2019-03-01T09:29:30.644Z,30.40
2019-03-01T09:32:01.937Z,27.10
2019-03-01T09:34:33.022Z,25.43
2019-03-01T09:37:03.366Z,28.17
2019-03-01T09:39:33.827Z,26.90
2019-03-01T09:42:06.230Z,27.93
2019-03-01T09:44:38.441Z,26.73
2019-03-01T09:47:10.255Z,28.33
2019-03-01T09:49:42.270Z,28.07
2019-03-01T09:52:12.776Z,31.07
2019-03-01T09:54:43.539Z,28.77
2019-03-01T09:57:21.610Z,27.47
2019-03-01T10:00:02.123Z,28.80
2019-03-01T10:02:41.571Z,27.03
2019-03-01T10:05:22.302Z,30.50
2019-03-01T10:08:02.588Z,30.63
2019-03-01T10:10:46.731Z,29.27
2019-03-01T10:13:30.316Z,27.23
2019-03-01T10:16:08.051Z,27.83
2019-03-01T10:18:47.410Z,26.83
2019-03-01T10:21:26.706Z,27.80
2019-03-01T10:24:07.996Z,21.93
2019-03-01T10:26:46.795Z,25.60
2019-03-01T10:29:27.975Z,27.33
2019-03-01T10:32:07.720Z,25.87
2019-03-01T10:34:48.449Z,25.23
2019-03-01T10:37:32.204Z,23.93
2019-03-01T10:40:13.592Z,27.97
2019-03-01T10:42:54.724Z,26.87
2019-03-01T10:45:34.956Z,25.30
2019-03-01T10:48:14.948Z,27.13
2019-03-01T10:51:07.356Z,25.10
2019-03-01T10:53:50.564Z,26.93
2019-03-01T10:56:27.366Z,26.33
2019-03-01T10:58:58.511Z,26.87
2019-03-01T11:01:28.845Z,24.87
2019-03-01T11:03:59.192Z,29.10
2019-03-01T11:06:29.536Z,29.13
2019-03-01T11:09:00.208Z,29.17
2019-03-01T11:11:37.839Z,30.07
2019-03-01T11:14:10.043Z,32.03
2019-03-01T11:16:40.492Z,28.90
2019-03-01T11:19:11.310Z,32.77
2019-03-01T11:21:47.691Z,32.30
2019-03-01T11:24:28.904Z,32.30
2019-03-01T11:27:12.814Z,31.90
2019-03-01T11:29:48.450Z,33.33
2019-03-01T11:32:29.815Z,30.70
2019-03-01T11:35:09.607Z,33.80
2019-03-01T11:37:49.510Z,35.63
2019-03-01T11:40:34.730Z,30.27
2019-03-01T11:43:07.670Z,34.07
2019-03-01T11:45:39.407Z,28.53
2019-03-01T11:48:09.818Z,33.27
2019-03-01T11:50:41.995Z,32.70
2019-03-01T11:53:12.315Z,31.00
2019-03-01T11:55:42.640Z,32.73
2019-03-01T11:58:13.125Z,32.17
2019-03-01T12:00:52.065Z,33.27
2019-03-01T12:03:23.908Z,33.67
2019-03-01T12:06:03.292Z,30.33
2019-03-01T12:08:43.333Z,33.77
2019-03-01T12:11:23.481Z,30.93
2019-03-01T12:14:07.972Z,33.07
2019-03-01T12:16:48.373Z,31.40
2019-03-01T12:19:28.334Z,30.03
2019-03-01T12:22:16.764Z,28.47
2019-03-01T12:24:50.688Z,32.90
2019-03-01T12:27:29.259Z,29.23
2019-03-01T12:30:07.745Z,27.10
2019-03-01T12:32:47.895Z,30.93
2019-03-01T12:35:28.028Z,30.33
2019-03-01T12:38:07.227Z,32.73
2019-03-01T12:40:47.486Z,28.87
2019-03-01T12:43:18.796Z,27.33
2019-03-01T12:45:49.063Z,32.63
2019-03-01T12:48:19.269Z,34.67
2019-03-01T12:50:49.518Z,30.23
2019-03-01T12:53:20.292Z,30.57
2019-03-01T12:55:51.847Z,32.07
2019-03-01T12:58:22.042Z,33.03
2019-03-01T13:00:52.973Z,31.93
2019-03-01T13:03:29.987Z,36.17
2019-03-01T13:06:03.834Z,34.97
2019-03-01T13:08:35.757Z,33.10
2019-03-01T13:11:06.460Z,35.47
2019-03-01T13:13:57.459Z,38.40
2019-03-01T13:16:38.452Z,30.23
2019-03-01T13:19:09.402Z,23.77
2019-03-01T13:21:39.629Z,20.37
2019-03-01T13:24:12.572Z,15.67
2019-03-01T13:30:16.542Z,15.03
2019-03-01T13:32:59.004Z,13.50
2019-03-01T13:35:41.424Z,14.43
2019-03-01T13:38:46.181Z,16.20
2019-03-01T13:41:17.330Z,15.40
2019-03-01T13:43:47.930Z,14.77
2019-03-01T13:46:18.245Z,14.77
2019-03-01T13:48:50.911Z,15.87
2019-03-01T13:51:22.637Z,19.90
2019-03-01T13:53:53.215Z,19.57
2019-03-01T13:56:32.789Z,25.30
2019-03-01T13:59:09.029Z,27.20
2019-03-01T14:01:47.812Z,22.17
2019-03-01T14:04:19.057Z,27.00
2019-03-01T14:06:49.774Z,29.50
2019-03-01T14:09:23.313Z,29.10
2019-03-01T14:11:55.890Z,28.37
2019-03-01T14:14:31.439Z,30.27
2019-03-01T14:17:24.501Z,29.60
2019-03-01T14:20:21.321Z,29.23
2019-03-01T14:23:04.671Z,29.17
2019-03-01T14:26:04.783Z,30.93
2019-03-01T14:28:55.597Z,32.70
2019-03-01T14:31:32.878Z,33.17
2019-03-01T14:34:04.145Z,29.50
2019-03-01T14:36:45.087Z,31.57
2019-03-01T14:39:28.381Z,31.13
2019-03-01T14:42:10.947Z,29.93
2019-03-01T14:44:47.931Z,29.37
2019-03-01T14:47:25.292Z,32.03
2019-03-01T14:50:04.340Z,37.27
2019-03-01T14:52:34.999Z,32.27
2019-03-01T14:55:05.812Z,35.17
2019-03-01T14:57:47.079Z,36.93
2019-03-01T15:00:35.192Z,41.00
2019-03-01T15:03:39.895Z,41.47
2019-03-01T15:06:19.122Z,45.93
2019-03-01T15:08:51.162Z,44.73
2019-03-01T15:11:22.972Z,45.93
2019-03-01T15:13:54.770Z,47.07
2019-03-01T15:16:25.160Z,42.63
2019-03-01T15:18:55.904Z,46.93
2019-03-01T15:21:26.913Z,50.43
2019-03-01T15:24:00.354Z,44.87
2019-03-01T15:26:30.024Z,48.93
2019-03-01T15:29:00.517Z,48.17
2019-03-01T15:31:31.204Z,55.73
2019-03-01T15:34:02.147Z,55.03
2019-03-01T15:36:33.828Z,52.87
2019-03-01T15:39:08.544Z,56.40
2019-03-01T15:41:42.075Z,62.90
2019-03-01T15:44:11.490Z,59.97
2019-03-01T15:46:42.098Z,67.53
2019-03-01T15:49:15.147Z,66.10
2019-03-01T15:51:45.644Z,64.63
2019-03-01T15:54:16.292Z,63.57
2019-03-01T15:56:47.116Z,63.60
2019-03-01T15:59:17.531Z,69.30
2019-03-01T16:01:48.205Z,68.87
2019-03-01T16:04:18.559Z,72.43
2019-03-01T16:06:49.244Z,77.07
2019-03-01T16:09:21.836Z,70.93
2019-03-01T16:11:53.133Z,77.03
2019-03-01T16:14:25.065Z,71.37
2019-03-01T16:16:56.293Z,71.57
2019-03-01T16:19:29.220Z,76.43
2019-03-01T16:21:59.433Z,70.43
2019-03-01T16:24:29.963Z,76.17
2019-03-01T16:27:00.740Z,70.10
2019-03-01T16:29:31.321Z,70.10
2019-03-01T16:32:04.736Z,72.93
2019-03-01T16:34:33.848Z,81.30
2019-03-01T16:37:04.176Z,82.53
2019-03-01T16:39:35.263Z,74.57
2019-03-01T16:42:05.556Z,77.63
2019-03-01T16:44:37.060Z,84.57
2019-03-01T16:47:07.614Z,76.57
2019-03-01T16:49:38.611Z,78.90
2019-03-01T16:52:11.307Z,75.83
2019-03-01T16:54:43.811Z,82.73
2019-03-01T16:57:15.034Z,69.87
2019-03-01T16:59:46.365Z,72.03
2019-03-01T17:02:16.653Z,73.23
2019-03-01T17:04:47.080Z,73.90
2019-03-01T17:07:17.406Z,77.10
2019-03-01T17:09:51.337Z,78.73
2019-03-01T17:12:22.501Z,78.57
2019-03-01T17:14:53.325Z,68.77
2019-03-01T17:17:23.776Z,75.93
2019-03-01T17:19:54.147Z,73.53
2019-03-01T17:22:26.409Z,76.30
2019-03-01T17:24:56.800Z,78.43
2019-03-01T17:27:27.055Z,77.67
2019-03-01T17:29:57.355Z,72.77
2019-03-01T17:32:28.579Z,64.47
2019-03-01T17:35:01.125Z,75.03
2019-03-01T17:37:33.295Z,65.07
2019-03-01T17:40:03.785Z,56.00
2019-03-01T17:42:37.039Z,55.17
2019-03-01T17:45:11.844Z,52.93
2019-03-01T17:47:45.384Z,53.60
2019-03-01T17:50:14.583Z,51.13
2019-03-01T17:52:45.947Z,50.70
2019-03-01T17:55:17.543Z,44.00
2019-03-01T17:57:50.189Z,41.53
2019-03-01T18:00:26.550Z,43.33
2019-03-01T18:02:58.544Z,47.27
2019-03-01T18:05:29.732Z,42.77
2019-03-01T18:08:03.586Z,46.53
2019-03-01T18:10:36.799Z,51.00
2019-03-01T18:13:07.171Z,51.80
2019-03-01T18:15:37.824Z,48.50
2019-03-01T18:18:08.922Z,48.20
2019-03-01T18:20:41.771Z,53.23
2019-03-01T18:23:13.639Z,49.90
2019-03-01T18:25:43.911Z,54.73
2019-03-01T18:28:14.414Z,47.50
2019-03-01T18:30:46.380Z,48.87
2019-03-01T18:33:20.561Z,53.60
2019-03-01T18:35:52.449Z,54.13
2019-03-01T18:38:21.202Z,56.17
2019-03-01T18:40:54.375Z,50.83
2019-03-01T18:43:28.286Z,54.90
2019-03-01T18:45:58.685Z,49.40
2019-03-01T18:48:29.977Z,53.93
2019-03-01T18:51:03.561Z,53.87
2019-03-01T18:53:32.937Z,59.87
2019-03-01T18:56:03.378Z,54.07
2019-03-01T18:58:36.456Z,57.90
2019-03-01T19:01:10.888Z,58.37
2019-03-01T19:03:40.513Z,58.20
2019-03-01T19:06:12.899Z,59.70
2019-03-01T19:08:46.112Z,66.87
2019-03-01T19:11:16.741Z,61.00
2019-03-01T19:13:47.299Z,60.33
2019-03-01T19:16:18.188Z,64.57
2019-03-01T19:18:51.239Z,61.70
2019-03-01T19:21:23.669Z,60.90
2019-03-01T19:23:54.286Z,60.73
2019-03-01T19:26:24.707Z,56.20
2019-03-01T19:28:59.023Z,62.90
2019-03-01T19:31:28.454Z,62.23
2019-03-01T19:33:59.160Z,55.40
2019-03-01T19:36:29.636Z,59.20
2019-03-01T19:39:01.559Z,61.30
2019-03-01T19:41:33.593Z,58.77
2019-03-01T19:44:05.795Z,56.27
2019-03-01T19:46:36.487Z,57.77
2019-03-01T19:49:09.427Z,54.00
2019-03-01T19:51:44.891Z,51.90
2019-03-01T19:54:15.358Z,55.27
2019-03-01T19:56:46.762Z,54.30
2019-03-01T19:59:17.577Z,48.10
2019-03-01T20:01:49.467Z,50.33
2019-03-01T20:04:21.804Z,47.60
2019-03-01T20:06:52.815Z,46.30
2019-03-01T20:09:23.115Z,50.70
2019-03-01T20:11:59.227Z,41.87
2019-03-01T20:14:33.836Z,41.67
2019-03-01T20:17:02.708Z,40.20
2019-03-01T20:19:33.979Z,42.53
2019-03-01T20:22:05.084Z,41.57
2019-03-01T20:24:40.075Z,42.37
2019-03-01T20:27:09.745Z,39.60
2019-03-01T20:29:40.064Z,48.37
2019-03-01T20:32:12.619Z,48.43
2019-03-01T20:34:43.535Z,39.57
2019-03-01T20:37:16.578Z,38.57
2019-03-01T20:39:47.433Z,45.77
2019-03-01T20:42:23.598Z,30.70
2019-03-01T20:44:53.990Z,35.87
2019-03-01T20:47:24.585Z,39.57
2019-03-01T20:49:54.902Z,40.23
2019-03-01T20:52:27.254Z,44.27
2019-03-01T20:55:00.661Z,38.10
2019-03-01T20:57:32.406Z,39.00
2019-03-01T21:00:03.428Z,36.80
2019-03-01T21:02:35.670Z,36.97
2019-03-01T21:05:09.699Z,39.07
2019-03-01T21:07:41.831Z,41.37
2019-03-01T21:10:15.970Z,55.37
2019-03-01T21:12:49.210Z,47.27
2019-03-01T21:15:22.746Z,44.23
2019-03-01T21:17:57.145Z,44.13
2019-03-01T21:20:26.272Z,47.43
2019-03-01T21:22:57.031Z,42.53
2019-03-01T21:25:30.298Z,50.03
2019-03-01T21:28:01.718Z,49.83
2019-03-01T21:30:32.414Z,44.97
2019-03-01T21:33:02.918Z,43.53
2019-03-01T21:35:33.246Z,42.57
2019-03-01T21:38:03.968Z,49.23
2019-03-01T21:40:34.819Z,53.27
2019-03-01T21:43:07.000Z,43.17
2019-03-01T21:45:39.602Z,46.67
2019-03-01T21:48:10.010Z,47.37
2019-03-01T21:50:42.442Z,41.20
2019-03-01T21:53:12.851Z,45.30
2019-03-01T21:55:43.204Z,45.90
2019-03-01T21:58:13.489Z,43.30
2019-03-01T22:00:43.779Z,48.23
2019-03-01T22:03:14.130Z,51.30
2019-03-01T22:05:45.395Z,44.20
2019-03-01T22:08:16.543Z,44.70
2019-03-01T22:10:46.872Z,43.17
2019-03-01T22:13:19.545Z,44.07
2019-03-01T22:15:53.219Z,40.40
2019-03-01T22:18:24.869Z,48.00
2019-03-01T22:20:55.291Z,36.67
2019-03-01T22:23:25.967Z,45.27
2019-03-01T22:25:56.981Z,40.83
2019-03-01T22:28:27.241Z,41.23
2019-03-01T22:31:00.281Z,42.10
2019-03-01T22:33:29.746Z,41.70
2019-03-01T22:35:59.992Z,41.10
2019-03-01T22:38:30.400Z,43.20
2019-03-01T22:41:03.883Z,37.50
2019-03-01T22:43:32.628Z,41.60
2019-03-01T22:46:02.924Z,42.47
2019-03-01T22:48:33.284Z,38.70
2019-03-01T22:51:03.582Z,41.27
2019-03-01T22:53:34.026Z,40.27
2019-03-01T22:56:04.366Z,39.90
2019-03-01T22:58:36.496Z,37.00
2019-03-01T23:01:50.889Z,29.50
2019-03-01T23:04:22.312Z,38.10
2019-03-01T23:06:52.822Z,29.13
2019-03-01T23:09:23.434Z,32.37
2019-03-01T23:11:55.378Z,31.90
2019-03-01T23:14:27.368Z,29.40
2019-03-01T23:16:58.927Z,42.43
2019-03-01T23:19:29.701Z,38.77
2019-03-01T23:22:00.002Z,29.90
2019-03-01T23:24:49.517Z,30.37
2019-03-01T23:27:20.431Z,30.80
2019-03-01T23:29:54.265Z,28.77
2019-03-01T23:32:23.804Z,23.27
2019-03-01T23:34:54.157Z,18.80
2019-03-01T23:37:24.442Z,22.83
2019-03-01T23:39:57.146Z,18.07
2019-03-01T23:42:26.703Z,18.33
2019-03-01T23:44:59.227Z,18.87
2019-03-01T23:47:29.487Z,20.23
2019-03-01T23:50:00.799Z,15.73
2019-03-01T23:52:32.377Z,15.60
2019-03-01T23:55:03.851Z,17.73
2019-03-01T23:57:34.163Z,15.90
